createdAt,value
2022-11-08T00:01:20.224Z,13.9
2022-11-08T00:03:51.228Z,14
2022-11-08T00:06:22.133Z,14
2022-11-08T00:08:56.588Z,13.9
2022-11-08T00:11:27.600Z,14
2022-11-08T00:13:59.092Z,14
2022-11-08T00:16:30.545Z,14
2022-11-08T00:19:01.772Z,14
2022-11-08T00:21:32.812Z,13.9
2022-11-08T00:24:03.583Z,13.9
2022-11-08T00:26:34.433Z,13.9
2022-11-08T00:29:05.014Z,13.9
2022-11-08T00:31:36.335Z,13.9
2022-11-08T00:34:07.321Z,14
2022-11-08T00:36:38.322Z,14
2022-11-08T00:39:09.172Z,14
2022-11-08T00:41:40.823Z,14
2022-11-08T00:44:11.294Z,14
2022-11-08T00:46:43.128Z,14
2022-11-08T00:49:14.148Z,14
2022-11-08T00:51:44.849Z,14
2022-11-08T00:54:16.029Z,14
2022-11-08T00:56:47.642Z,14
2022-11-08T00:59:18.564Z,14.1
2022-11-08T01:01:50.860Z,14
2022-11-08T01:04:22.001Z,14
2022-11-08T01:06:53.768Z,14
2022-11-08T01:09:24.452Z,14
2022-11-08T01:11:55.187Z,14
2022-11-08T01:14:26.497Z,14
2022-11-08T01:16:58.099Z,14
2022-11-08T01:19:28.947Z,13.9
2022-11-08T01:21:59.826Z,14
2022-11-08T01:24:31.368Z,14
2022-11-08T01:27:02.337Z,14
2022-11-08T01:29:33.093Z,14
2022-11-08T01:32:03.522Z,14
2022-11-08T01:34:34.861Z,13.9
2022-11-08T01:37:05.802Z,13.9
2022-11-08T01:39:37.146Z,13.9
2022-11-08T01:42:07.913Z,14
2022-11-08T01:44:38.364Z,13.9
2022-11-08T01:47:08.688Z,13.9
2022-11-08T01:49:39.202Z,13.9
2022-11-08T01:52:10.312Z,14
2022-11-08T01:54:41.472Z,13.9
2022-11-08T01:57:13.192Z,13.9
2022-11-08T01:59:44.222Z,14
2022-11-08T02:02:15.236Z,14
2022-11-08T02:04:46.782Z,13.9
2022-11-08T02:07:18.130Z,13.9
2022-11-08T02:09:49.327Z,13.9
2022-11-08T02:12:20.491Z,13.9
2022-11-08T02:14:51.384Z,13.9
2022-11-08T02:17:22.132Z,13.9
2022-11-08T02:19:53.500Z,13.9
2022-11-08T02:22:25.054Z,13.9
2022-11-08T02:24:55.790Z,13.9
2022-11-08T02:27:27.344Z,13.9
2022-11-08T02:29:58.783Z,13.8
2022-11-08T02:32:30.739Z,13.9
2022-11-08T02:35:02.250Z,14
2022-11-08T02:37:34.069Z,13.9
2022-11-08T02:40:05.086Z,13.9
2022-11-08T02:42:36.138Z,13.8
2022-11-08T02:45:07.742Z,13.9
2022-11-08T02:47:39.706Z,13.9
2022-11-08T02:50:10.445Z,13.9
2022-11-08T02:52:42.051Z,13.8
2022-11-08T02:55:13.755Z,13.8
2022-11-08T02:57:45.301Z,13.8
2022-11-08T03:00:16.208Z,13.8
2022-11-08T03:02:47.624Z,13.8
2022-11-08T03:05:19.006Z,13.9
2022-11-08T03:07:50.432Z,13.8
2022-11-08T03:10:21.873Z,13.9
2022-11-08T03:12:52.636Z,13.9
2022-11-08T03:15:23.729Z,13.9
2022-11-08T03:17:54.885Z,13.9
2022-11-08T03:20:31.278Z,13.9
2022-11-08T03:22:59.057Z,13.8
2022-11-08T03:25:30.244Z,13.9
2022-11-08T03:28:01.504Z,13.9
2022-11-08T03:30:32.428Z,13.9
2022-11-08T03:33:03.363Z,13.9
2022-11-08T03:35:34.774Z,13.9
2022-11-08T03:38:05.683Z,13.8
2022-11-08T03:40:37.090Z,13.9
2022-11-08T03:43:07.943Z,13.9
2022-11-08T03:45:38.951Z,13.9
2022-11-08T03:48:09.546Z,13.9
2022-11-08T03:50:40.073Z,13.9
2022-11-08T03:53:15.277Z,13.9
2022-11-08T03:55:45.686Z,14
2022-11-08T03:58:17.110Z,14
2022-11-08T04:00:47.504Z,13.9
2022-11-08T04:03:19.299Z,13.9
2022-11-08T04:05:50.784Z,14
2022-11-08T04:08:22.518Z,13.9
2022-11-08T04:10:53.647Z,13.9
2022-11-08T04:13:24.358Z,14
2022-11-08T04:15:55.365Z,13.9
2022-11-08T04:18:26.925Z,13.9
2022-11-08T04:20:58.098Z,13.9
2022-11-08T04:23:28.979Z,14
2022-11-08T04:25:59.887Z,13.9
2022-11-08T04:28:30.582Z,14
2022-11-08T04:31:01.752Z,13.9
2022-11-08T04:33:32.745Z,14
2022-11-08T04:36:03.563Z,14
2022-11-08T04:38:34.464Z,14
2022-11-08T04:41:05.943Z,14
2022-11-08T04:43:36.468Z,13.9
2022-11-08T04:46:07.480Z,13.9
2022-11-08T04:48:39.442Z,13.9
2022-11-08T04:51:10.458Z,13.9
2022-11-08T04:53:42.553Z,14
2022-11-08T04:56:14.134Z,14
2022-11-08T04:58:45.533Z,14
2022-11-08T05:01:16.353Z,14
2022-11-08T05:03:47.659Z,13.9
2022-11-08T05:06:19.740Z,13.9
2022-11-08T05:08:50.841Z,14
2022-11-08T05:11:22.330Z,14
2022-11-08T05:13:54.056Z,13.9
2022-11-08T05:16:24.323Z,14
2022-11-08T05:18:55.888Z,14
2022-11-08T05:21:27.073Z,14
2022-11-08T05:23:58.225Z,13.9
2022-11-08T05:26:29.487Z,13.9
2022-11-08T05:29:00.442Z,13.9
2022-11-08T05:31:31.789Z,13.9
2022-11-08T05:34:02.200Z,13.9
2022-11-08T05:36:32.411Z,13.9
2022-11-08T05:39:03.464Z,13.9
2022-11-08T05:41:35.237Z,13.9
2022-11-08T05:44:05.483Z,14
2022-11-08T05:46:36.538Z,13.9
2022-11-08T05:49:07.864Z,13.9
2022-11-08T05:51:39.151Z,13.9
2022-11-08T05:54:09.913Z,13.9
2022-11-08T05:56:41.592Z,13.9
2022-11-08T05:59:12.653Z,13.8
2022-11-08T06:01:44.419Z,13.8
2022-11-08T06:04:14.872Z,13.9
2022-11-08T06:06:45.120Z,13.9
2022-11-08T06:09:15.486Z,13.9
2022-11-08T06:11:46.008Z,13.9
2022-11-08T06:14:17.682Z,13.9
2022-11-08T06:16:48.830Z,13.9
2022-11-08T06:19:20.249Z,14
2022-11-08T06:21:52.120Z,13.9
2022-11-08T06:24:22.933Z,13.9
2022-11-08T06:26:53.993Z,14
2022-11-08T06:29:25.275Z,14
2022-11-08T06:31:56.821Z,13.9
2022-11-08T06:34:28.801Z,14
2022-11-08T06:36:59.478Z,14
2022-11-08T06:39:30.885Z,14
2022-11-08T06:42:01.254Z,14
2022-11-08T06:44:31.933Z,14.1
2022-11-08T06:47:03.205Z,14.1
2022-11-08T06:49:34.014Z,14.1
2022-11-08T06:52:04.870Z,14.1
2022-11-08T06:54:36.161Z,14.1
2022-11-08T06:57:06.474Z,14.1
2022-11-08T06:59:37.650Z,14.1
2022-11-08T07:02:08.752Z,14
2022-11-08T07:04:38.891Z,14
2022-11-08T07:07:09.664Z,14.1
2022-11-08T07:09:40.013Z,14.1
2022-11-08T07:12:10.605Z,14.1
2022-11-08T07:14:41.521Z,14.1
2022-11-08T07:17:12.443Z,14.2
2022-11-08T07:19:44.142Z,14.2
2022-11-08T07:22:15.211Z,14.1
2022-11-08T07:24:46.280Z,14.2
2022-11-08T07:27:17.739Z,14.2
2022-11-08T07:29:48.343Z,14.1
2022-11-08T07:32:19.104Z,14.2
2022-11-08T07:34:50.222Z,14.2
2022-11-08T07:37:20.692Z,14.2
2022-11-08T07:39:51.106Z,14.2
2022-11-08T07:42:21.420Z,14.3
2022-11-08T07:44:51.822Z,14.3
2022-11-08T07:47:22.396Z,14.3
2022-11-08T07:49:53.481Z,14.3
2022-11-08T07:52:22.327Z,14.4
2022-11-08T07:54:52.367Z,14.4
2022-11-08T07:57:23.549Z,14.4
2022-11-08T07:59:54.562Z,14.3
2022-11-08T08:02:25.011Z,14.4
2022-11-08T08:04:55.666Z,14.4
2022-11-08T08:07:26.216Z,14.5
2022-11-08T08:09:57.222Z,14.4
2022-11-08T08:12:29.009Z,14.4
2022-11-08T08:14:59.961Z,14.3
2022-11-08T08:17:30.856Z,14.4
2022-11-08T08:20:02.012Z,14.3
2022-11-08T08:22:32.523Z,14.3
2022-11-08T08:25:03.612Z,14.3
2022-11-08T08:27:34.098Z,14.3
2022-11-08T08:30:05.882Z,14.3
2022-11-08T08:32:36.613Z,14.3
2022-11-08T08:35:07.833Z,14.2
2022-11-08T08:37:38.398Z,14.2
2022-11-08T08:40:09.312Z,14.1
2022-11-08T08:42:40.031Z,14.2
2022-11-08T08:45:14.606Z,14.2
2022-11-08T08:47:41.667Z,14.1
2022-11-08T08:50:12.466Z,14.1
2022-11-08T08:52:44.347Z,14.2
2022-11-08T08:55:15.462Z,14.2
2022-11-08T08:57:46.565Z,14.2
2022-11-08T09:02:49.231Z,14.3
2022-11-08T09:05:20.489Z,14.4
2022-11-08T09:07:50.915Z,14.5
2022-11-08T09:10:21.506Z,14.5
2022-11-08T09:12:52.088Z,14.5
2022-11-08T09:15:22.818Z,14.6
2022-11-08T09:17:52.990Z,14.6
2022-11-08T09:20:23.240Z,14.6
2022-11-08T09:22:53.962Z,14.7
2022-11-08T09:25:24.746Z,14.6
2022-11-08T09:27:55.859Z,14.7
2022-11-08T09:30:26.934Z,14.7
2022-11-08T09:33:01.913Z,14.8
2022-11-08T09:35:29.109Z,14.8
2022-11-08T09:37:59.683Z,14.8
2022-11-08T09:40:30.271Z,14.9
2022-11-08T09:43:01.068Z,14.9
2022-11-08T09:45:32.148Z,14.9
2022-11-08T09:48:05.186Z,14.9
2022-11-08T09:50:33.569Z,14.9
2022-11-08T09:53:04.310Z,14.9
2022-11-08T09:55:34.848Z,15
2022-11-08T09:58:05.400Z,15
2022-11-08T10:00:36.620Z,14.9
2022-11-08T10:03:06.857Z,15
2022-11-08T10:05:37.241Z,15.1
2022-11-08T10:08:07.837Z,15.1
2022-11-08T10:10:38.335Z,15.1
2022-11-08T10:13:09.192Z,15.2
2022-11-08T10:15:44.390Z,15.1
2022-11-08T10:18:15.232Z,15.2
2022-11-08T10:20:46.452Z,15.2
2022-11-08T10:23:17.063Z,15.2
2022-11-08T10:25:47.097Z,15.3
2022-11-08T10:28:18.556Z,15.3
2022-11-08T10:30:49.224Z,15.4
2022-11-08T10:33:20.306Z,15.2
2022-11-08T10:35:50.866Z,15.3
2022-11-08T10:38:21.021Z,15.3
2022-11-08T10:40:52.649Z,15.3
2022-11-08T10:43:23.642Z,15.3
2022-11-08T10:45:54.395Z,15.4
2022-11-08T10:48:25.212Z,15.4
2022-11-08T10:50:56.030Z,15.5
2022-11-08T10:53:27.118Z,15.4
2022-11-08T10:55:58.777Z,15.4
2022-11-08T10:58:29.630Z,15.4
2022-11-08T11:01:00.450Z,15.4
2022-11-08T11:03:31.531Z,15.5
2022-11-08T11:06:02.404Z,15.6
2022-11-08T11:08:33.427Z,15.6
2022-11-08T11:11:04.732Z,15.6
2022-11-08T11:13:35.427Z,15.6
2022-11-08T11:16:06.710Z,15.7
2022-11-08T11:18:37.355Z,15.7
2022-11-08T11:21:07.507Z,15.6
2022-11-08T11:23:38.504Z,15.6
2022-11-08T11:26:08.535Z,15.7
2022-11-08T11:28:39.897Z,15.7
2022-11-08T11:31:10.542Z,15.8
2022-11-08T11:33:41.394Z,15.9
2022-11-08T11:36:15.922Z,16
2022-11-08T11:38:46.982Z,16
2022-11-08T11:41:18.392Z,16
2022-11-08T11:43:49.333Z,16.1
2022-11-08T11:46:20.516Z,16.1
2022-11-08T11:48:51.311Z,16.1
2022-11-08T11:51:22.321Z,16.1
2022-11-08T11:53:53.061Z,16.2
2022-11-08T11:56:23.840Z,16.1
2022-11-08T11:58:57.044Z,16.3
2022-11-08T12:01:28.819Z,16.2
2022-11-08T12:04:00.003Z,16.4
2022-11-08T12:06:31.396Z,16.3
2022-11-08T12:09:02.571Z,16.3
2022-11-08T12:11:33.403Z,16.2
2022-11-08T12:14:04.328Z,16.3
2022-11-08T12:16:34.833Z,16.2
2022-11-08T12:19:06.305Z,16.3
2022-11-08T12:21:37.055Z,16.2
2022-11-08T12:24:08.042Z,16.2
2022-11-08T12:26:39.578Z,16.2
2022-11-08T12:29:10.422Z,16.1
2022-11-08T12:31:40.558Z,16.2
2022-11-08T12:34:11.538Z,16.2
2022-11-08T12:36:41.898Z,16.3
2022-11-08T12:39:14.778Z,16.2
2022-11-08T12:41:45.392Z,16.3
2022-11-08T12:44:16.468Z,16.3
2022-11-08T12:46:47.556Z,16.2
2022-11-08T12:49:18.673Z,16.1
2022-11-08T12:51:49.405Z,16.2
2022-11-08T12:54:20.111Z,16.2
2022-11-08T12:56:51.171Z,16.2
2022-11-08T12:59:21.802Z,16.3
2022-11-08T13:01:52.565Z,16.4
2022-11-08T13:04:23.360Z,16.3
2022-11-08T13:06:54.426Z,16.3
2022-11-08T13:09:25.381Z,16.3
2022-11-08T13:11:56.006Z,16.2
2022-11-08T13:14:26.872Z,16.3
2022-11-08T13:16:58.136Z,16.2
2022-11-08T13:19:29.859Z,16.1
2022-11-08T13:22:00.895Z,16.1
2022-11-08T13:24:43.701Z,16.2
2022-11-08T13:27:02.842Z,16.1
2022-11-08T13:29:33.880Z,16.1
2022-11-08T13:32:05.038Z,16
2022-11-08T13:34:36.027Z,16
2022-11-08T13:37:06.786Z,15.9
2022-11-08T13:39:38.258Z,16
2022-11-08T13:42:09.257Z,15.9
2022-11-08T13:44:40.154Z,15.9
2022-11-08T13:47:11.123Z,15.9
2022-11-08T13:49:41.896Z,15.8
2022-11-08T13:52:13.664Z,15.8
2022-11-08T13:54:44.565Z,15.8
2022-11-08T13:57:15.684Z,15.8
2022-11-08T13:59:46.732Z,15.8
2022-11-08T14:02:17.692Z,15.8
2022-11-08T14:04:49.512Z,15.8
2022-11-08T14:07:23.908Z,15.8
2022-11-08T14:09:51.654Z,15.9
2022-11-08T14:12:23.034Z,15.9
2022-11-08T14:14:54.468Z,15.8
2022-11-08T14:17:25.169Z,15.7
2022-11-08T14:19:56.324Z,15.6
2022-11-08T14:22:27.304Z,15.6
2022-11-08T14:24:59.335Z,15.6
2022-11-08T14:27:30.660Z,15.6
2022-11-08T14:30:02.224Z,15.5
2022-11-08T14:32:33.460Z,15.6
2022-11-08T14:35:05.038Z,15.6
2022-11-08T14:37:39.634Z,15.6
2022-11-08T14:40:11.995Z,15.6
2022-11-08T14:42:44.198Z,15.5
2022-11-08T14:45:15.714Z,15.5
2022-11-08T14:47:47.270Z,15.4
2022-11-08T14:50:18.894Z,15.4
2022-11-08T14:52:50.645Z,15.4
2022-11-08T14:55:21.946Z,15.3
2022-11-08T14:57:54.114Z,15.2
2022-11-08T15:00:25.564Z,15.2
2022-11-08T15:02:57.372Z,15.2
2022-11-08T15:05:29.826Z,15.2
2022-11-08T15:08:01.402Z,15.2
2022-11-08T15:10:33.172Z,15.1
2022-11-08T15:13:05.024Z,15
2022-11-08T15:15:36.736Z,15
2022-11-08T15:18:08.335Z,15.1
2022-11-08T15:20:39.908Z,15.1
2022-11-08T15:23:12.588Z,15
2022-11-08T15:25:44.660Z,14.9
2022-11-08T15:28:16.583Z,14.9
2022-11-08T15:30:47.981Z,15
2022-11-08T15:33:20.304Z,15
2022-11-08T15:35:51.891Z,14.8
2022-11-08T15:38:23.216Z,14.9
2022-11-08T15:40:54.582Z,14.9
2022-11-08T15:43:26.173Z,14.8
2022-11-08T15:45:57.547Z,14.9
2022-11-08T15:48:29.311Z,14.9
2022-11-08T15:51:02.816Z,14.8
2022-11-08T15:53:35.068Z,14.8
2022-11-08T15:56:06.518Z,14.8
2022-11-08T15:58:38.222Z,14.8
2022-11-08T16:01:10.073Z,14.8
2022-11-08T16:03:41.492Z,14.8
2022-11-08T16:06:13.225Z,14.7
2022-11-08T16:08:45.110Z,14.6
2022-11-08T16:11:16.700Z,14.6
2022-11-08T16:13:48.544Z,14.6
2022-11-08T16:16:20.091Z,14.6
2022-11-08T16:18:51.953Z,14.3
2022-11-08T16:21:23.886Z,14.3
2022-11-08T16:23:55.260Z,14.3
2022-11-08T16:26:29.235Z,14.3
2022-11-08T16:29:01.342Z,14.3
2022-11-08T16:31:32.812Z,14.4
2022-11-08T16:34:04.251Z,14.3
2022-11-08T16:36:36.014Z,14.3
2022-11-08T16:39:08.349Z,14.3
2022-11-08T16:41:42.700Z,14.3
2022-11-08T16:44:11.163Z,14.2
2022-11-08T16:46:42.621Z,14.2
2022-11-08T16:49:14.804Z,14.2
2022-11-08T16:51:46.834Z,14.2
2022-11-08T16:54:18.104Z,14.2
2022-11-08T16:56:48.961Z,14.2
2022-11-08T16:59:20.613Z,14.1
2022-11-08T17:01:52.160Z,14.1
2022-11-08T17:04:23.773Z,14.1
2022-11-08T17:06:55.533Z,14.1
2022-11-08T17:09:27.528Z,14
2022-11-08T17:11:59.661Z,14
2022-11-08T17:14:31.303Z,14
2022-11-08T17:17:03.029Z,13.8
2022-11-08T17:19:34.549Z,13.8
2022-11-08T17:22:05.800Z,13.7
2022-11-08T17:24:37.122Z,13.8
2022-11-08T17:27:08.885Z,13.8
2022-11-08T17:29:40.556Z,13.7
2022-11-08T17:32:12.293Z,13.7
2022-11-08T17:34:45.152Z,13.7
2022-11-08T17:37:14.756Z,13.7
2022-11-08T17:39:46.623Z,13.6
2022-11-08T17:42:17.789Z,13.6
2022-11-08T17:44:49.286Z,13.6
2022-11-08T17:47:20.993Z,13.6
2022-11-08T17:49:52.857Z,13.5
2022-11-08T17:52:24.262Z,13.5
2022-11-08T17:54:55.507Z,13.5
2022-11-08T17:57:27.015Z,13.6
2022-11-08T17:59:59.171Z,13.5
2022-11-08T18:02:30.477Z,13.4
2022-11-08T18:05:03.448Z,13.4
2022-11-08T18:07:35.284Z,13.4
2022-11-08T18:10:07.152Z,13.4
2022-11-08T18:12:40.205Z,13.4
2022-11-08T18:15:11.982Z,13.4
2022-11-08T18:17:44.756Z,13.5
2022-11-08T18:20:16.579Z,13.4
2022-11-08T18:22:48.986Z,13.4
2022-11-08T18:25:19.907Z,13.4
2022-11-08T18:27:51.462Z,13.4
2022-11-08T18:30:22.768Z,13.4
2022-11-08T18:32:54.551Z,13.3
2022-11-08T18:35:26.773Z,13.3
2022-11-08T18:37:59.043Z,13.2
2022-11-08T18:40:30.258Z,13.2
2022-11-08T18:43:02.249Z,13
2022-11-08T18:45:33.852Z,13.2
2022-11-08T18:48:05.476Z,13.1
2022-11-08T18:50:36.733Z,13.1
2022-11-08T18:53:09.034Z,13.1
2022-11-08T18:55:40.758Z,13.1
2022-11-08T18:58:12.147Z,13.1
2022-11-08T19:00:45.330Z,13
2022-11-08T19:03:18.009Z,12.8
2022-11-08T19:05:49.523Z,12.9
2022-11-08T19:08:20.715Z,12.9
2022-11-08T19:10:52.777Z,12.9
2022-11-08T19:13:24.632Z,12.9
2022-11-08T19:15:56.256Z,12.9
2022-11-08T19:18:27.480Z,12.8
2022-11-08T19:20:59.747Z,12.9
2022-11-08T19:23:31.767Z,13
2022-11-08T19:26:03.312Z,12.9
2022-11-08T19:28:34.755Z,13
2022-11-08T19:31:06.552Z,13
2022-11-08T19:33:38.150Z,13
2022-11-08T19:36:10.166Z,13
2022-11-08T19:38:43.169Z,12.9
2022-11-08T19:41:14.760Z,13
2022-11-08T19:43:46.187Z,13
2022-11-08T19:46:18.624Z,12.9
2022-11-08T19:48:51.007Z,13
2022-11-08T19:51:22.562Z,13
2022-11-08T19:53:54.452Z,12.9
2022-11-08T19:56:37.986Z,12.9
2022-11-08T19:58:57.233Z,12.9
2022-11-08T20:01:29.822Z,12.9
2022-11-08T20:04:02.972Z,12.9
2022-11-08T20:06:34.323Z,12.9
2022-11-08T20:09:07.677Z,12.9
2022-11-08T20:11:39.246Z,12.7
2022-11-08T20:14:10.550Z,12.8
2022-11-08T20:16:42.177Z,12.7
2022-11-08T20:19:15.907Z,12.7
2022-11-08T20:21:48.424Z,12.7
2022-11-08T20:24:20.165Z,12.7
2022-11-08T20:26:52.344Z,12.7
2022-11-08T20:29:24.402Z,12.7
2022-11-08T20:31:56.501Z,12.7
2022-11-08T20:34:29.704Z,12.7
2022-11-08T20:37:01.225Z,12.7
2022-11-08T20:39:32.905Z,12.6
2022-11-08T20:42:04.298Z,12.6
2022-11-08T20:44:36.051Z,12.6
2022-11-08T20:47:08.697Z,12.5
2022-11-08T20:49:41.068Z,12.5
2022-11-08T20:52:14.401Z,12.6
2022-11-08T20:54:45.969Z,12.6
2022-11-08T20:57:17.782Z,12.5
2022-11-08T20:59:49.349Z,12.4
2022-11-08T21:02:21.576Z,12.5
2022-11-08T21:04:53.812Z,12.4
2022-11-08T21:10:19.883Z,12.4
2022-11-08T21:12:37.969Z,12.4
2022-11-08T21:15:09.187Z,12.4
2022-11-08T21:17:41.144Z,12.4
2022-11-08T21:20:12.598Z,12.4
2022-11-08T21:22:46.021Z,12.4
2022-11-08T21:25:18.380Z,12.3
2022-11-08T21:27:50.109Z,12.3
2022-11-08T21:30:21.714Z,12.3
2022-11-08T21:32:53.459Z,12.3
2022-11-08T21:35:25.187Z,12.3
2022-11-08T21:37:56.423Z,12.3
2022-11-08T21:40:28.331Z,12.3
2022-11-08T21:43:00.180Z,12.3
2022-11-08T21:45:31.638Z,12.2
2022-11-08T21:48:03.135Z,12.1
2022-11-08T21:50:36.216Z,12.2
2022-11-08T21:53:08.845Z,12.2
2022-11-08T21:55:42.251Z,12.1
2022-11-08T21:58:14.624Z,12.2
2022-11-08T22:00:47.028Z,12.1
2022-11-08T22:03:18.811Z,12
2022-11-08T22:05:51.174Z,12.1
2022-11-08T22:08:22.453Z,12
2022-11-08T22:10:54.534Z,12.1
2022-11-08T22:13:26.211Z,12.1
2022-11-08T22:15:57.161Z,12
2022-11-08T22:18:58.522Z,12.1
2022-11-08T22:21:01.501Z,12.2
2022-11-08T22:23:33.627Z,12.2
2022-11-08T22:26:05.482Z,12.2
2022-11-08T22:28:37.366Z,12.2
2022-11-08T22:31:09.293Z,12.3
2022-11-08T22:33:40.655Z,12.3
2022-11-08T22:36:12.519Z,12.3
2022-11-08T22:38:47.952Z,12.2
2022-11-08T22:41:19.117Z,12.2
2022-11-08T22:43:50.808Z,12.2
2022-11-08T22:46:22.197Z,12.2
2022-11-08T22:48:53.261Z,12.3
2022-11-08T22:51:24.309Z,12.2
2022-11-08T22:53:55.781Z,12.2
2022-11-08T22:56:26.796Z,12.2
2022-11-08T22:59:00.289Z,12.2
2022-11-08T23:01:31.676Z,12.2
2022-11-08T23:04:02.671Z,12.1
2022-11-08T23:06:33.973Z,12.1
2022-11-08T23:09:05.937Z,12.1
2022-11-08T23:11:37.225Z,12.1
2022-11-08T23:14:09.536Z,12.1
2022-11-08T23:16:41.031Z,12
2022-11-08T23:19:13.241Z,12.1
2022-11-08T23:21:45.022Z,12.1
2022-11-08T23:24:16.788Z,12.1
2022-11-08T23:26:47.758Z,12.1
2022-11-08T23:29:18.811Z,12.1
2022-11-08T23:31:49.324Z,12
2022-11-08T23:34:21.000Z,12.1
2022-11-08T23:36:52.836Z,12.1
2022-11-08T23:39:23.552Z,12.1
2022-11-08T23:41:54.330Z,12.1
2022-11-08T23:44:25.804Z,12.1
2022-11-08T23:46:57.226Z,12.1
2022-11-08T23:49:29.049Z,12.1
2022-11-08T23:52:00.376Z,12.1
2022-11-08T23:54:31.582Z,12.1
2022-11-08T23:57:02.876Z,12.1
2022-11-08T23:59:33.275Z,12
